This is the latest recevied weather packets stored in our database for station/object IW7DVM-13. If no packets are shown the sender has not sent any weather packets the latest 10 day(s).
| Time | Temp. | Humidity | Pressure | Rain* | Wind** | Luminosity | Snow |
|---|---|---|---|---|---|---|---|
| 1788013203 | 41.67° C | 22% | 1008.3 hPa | 0 mm | - | - | - |
| 1788012903 | 41.11° C | 22% | 1008 hPa | 0 mm | - | - | - |
| 1788012604 | 41.11° C | 22% | 1008.1 hPa | 0 mm | - | - | - |
| 1788012303 | 40.56° C | 25% | 1008 hPa | 0 mm | - | - | - |
| 1788012003 | 38.89° C | 28% | 1008.1 hPa | 0 mm | - | - | - |
| 1788011703 | 37.22° C | 44% | 1008.2 hPa | 0 mm | - | - | - |
| 1788011403 | 36.67° C | 49% | 1008.2 hPa | 0 mm | - | - | - |
| 1788011103 | 36.11° C | 51% | 1008.4 hPa | 0 mm | - | - | - |
| 1788010803 | 36.11° C | 50% | 1008.4 hPa | 0 mm | - | - | - |
| 1788010503 | 36.11° C | 49% | 1008.3 hPa | 0 mm | - | - | - |
| 1788010203 | 36.67° C | 47% | 1008.4 hPa | 0 mm | - | - | - |
| 1788009903 | 36.67° C | 42% | 1008.6 hPa | 0 mm | - | - | - |
| 1788009603 | 37.22° C | 38% | 1008.5 hPa | 0 mm | - | - | - |
| 1788009303 | 37.78° C | 32% | 1008.4 hPa | 0 mm | - | - | - |
| 1788009003 | 38.33° C | 31% | 1008.4 hPa | 0 mm | - | - | - |
| 1788008703 | 39.44° C | 29% | 1008.4 hPa | 0 mm | - | - | - |
| 1788008403 | 39.44° C | 26% | 1008.3 hPa | 0 mm | - | - | - |
| 1788008103 | 39.44° C | 26% | 1008.1 hPa | 0 mm | - | - | - |
| 1788007803 | 39.44° C | 26% | 1008.4 hPa | 0 mm | - | - | - |
| 1788007503 | 40° C | 25% | 1008.2 hPa | 0 mm | - | - | - |
| 1788007203 | 39.44° C | 26% | 1008.1 hPa | 0 mm | - | - | - |
| 1788006904 | 39.44° C | 28% | 1008.3 hPa | 0 mm | - | - | - |
| 1788006603 | 38.89° C | 28% | 1008.5 hPa | 0 mm | - | - | - |
| 1788006303 | 38.33° C | 30% | 1008.4 hPa | 0 mm | - | - | - |
| 1788006003 | 38.89° C | 29% | 1008.5 hPa | 0 mm | - | - | - |
* Rain latest hour (hover to see other rain measurements)
** Current wind speed in m/s (hover to see current wind gust speed)